createdAt,value
2023-01-12T07:26:11.671Z,1.75
2023-01-12T07:28:42.706Z,1.08
2023-01-12T07:31:12.382Z,1.33
2023-01-12T07:33:41.806Z,1.23
2023-01-12T07:36:11.416Z,1.67
2023-01-12T07:38:42.548Z,1.80
2023-01-12T07:41:34.041Z,1.00
2023-01-12T07:44:10.879Z,1.13
2023-01-12T07:46:40.322Z,1.67
2023-01-12T07:49:09.743Z,1.27
2023-01-12T07:51:39.679Z,1.13
2023-01-12T07:54:10.173Z,0.93
2023-01-12T07:56:42.961Z,1.08
2023-01-12T07:59:13.578Z,1.27
2023-01-12T08:01:43.087Z,1.65
2023-01-12T08:04:12.557Z,1.40
2023-01-12T08:06:42.004Z,1.38
2023-01-12T08:09:11.503Z,1.50
2023-01-12T08:11:42.336Z,1.20
2023-01-12T08:14:25.388Z,1.50
2023-01-12T08:16:56.600Z,1.55
2023-01-12T08:19:32.110Z,1.15
2023-01-12T08:22:03.153Z,1.13
2023-01-12T08:24:37.290Z,1.52
2023-01-12T08:27:10.360Z,1.33
2023-01-12T08:29:44.668Z,1.33
2023-01-12T08:32:18.391Z,1.10
2023-01-12T08:34:52.169Z,1.17
2023-01-12T08:37:25.612Z,1.52
2023-01-12T08:39:55.019Z,0.90
2023-01-12T08:42:27.968Z,1.27
2023-01-12T08:44:58.227Z,1.38
2023-01-12T08:47:30.707Z,1.15
2023-01-12T08:50:01.736Z,1.50
2023-01-12T08:52:32.598Z,1.40
2023-01-12T08:55:02.167Z,2.25
2023-01-12T08:57:33.482Z,1.58
2023-01-12T09:00:03.413Z,1.30
2023-01-12T09:02:33.108Z,1.00
2023-01-12T09:05:02.493Z,1.08
2023-01-12T09:07:33.084Z,1.02
2023-01-12T09:10:02.446Z,1.02
2023-01-12T09:12:33.176Z,1.08
2023-01-12T09:15:02.578Z,1.08
2023-01-12T09:17:32.021Z,1.50
2023-01-12T09:20:01.420Z,1.17
2023-01-12T09:22:30.997Z,2.13
2023-01-12T09:25:00.405Z,1.35
2023-01-12T09:27:29.979Z,1.40
2023-01-12T09:30:00.703Z,1.25
2023-01-12T09:32:36.801Z,1.38
2023-01-12T09:35:08.379Z,1.30
2023-01-12T09:37:38.007Z,1.08
2023-01-12T09:40:13.897Z,0.80
2023-01-12T09:43:08.447Z,1.05
2023-01-12T09:45:56.809Z,1.20
2023-01-12T09:48:26.698Z,1.02
2023-01-12T09:51:05.143Z,1.08
2023-01-12T09:53:38.458Z,0.90
2023-01-12T09:59:22.995Z,0.88
2023-01-12T10:01:57.027Z,0.90
2023-01-12T10:04:27.093Z,1.08
2023-01-12T10:06:57.273Z,0.93
2023-01-12T10:09:52.027Z,0.93
2023-01-12T10:12:31.587Z,1.17
2023-01-12T10:15:30.947Z,0.90
2023-01-12T10:18:10.555Z,1.10
2023-01-12T10:20:43.933Z,1.00
2023-01-12T10:23:19.284Z,1.33
2023-01-12T10:25:51.346Z,1.20
2023-01-12T10:28:27.460Z,1.67
2023-01-12T10:30:58.905Z,0.90
2023-01-12T10:33:32.997Z,0.85
2023-01-12T10:36:09.633Z,1.17
2023-01-12T10:38:56.602Z,0.98
2023-01-12T10:41:27.759Z,0.65
2023-01-12T10:44:16.266Z,1.20
2023-01-12T18:25:20.834Z,2.25
2023-01-12T18:27:50.349Z,1.20
2023-01-12T18:30:20.264Z,0.82
2023-01-12T18:32:49.725Z,1.17
2023-01-12T18:35:19.210Z,0.98
2023-01-12T18:37:48.605Z,1.20
2023-01-12T18:40:18.195Z,1.50
2023-01-12T18:42:50.741Z,1.40
2023-01-12T18:45:21.328Z,1.30
2023-01-12T18:48:08.217Z,0.75
2023-01-12T18:50:55.270Z,0.93
2023-01-12T18:53:25.359Z,1.52
2023-01-12T18:55:57.174Z,0.85
2023-01-12T18:58:32.847Z,0.77
2023-01-12T19:01:05.861Z,1.38
2023-01-12T19:03:36.421Z,1.20
2023-01-12T19:06:22.493Z,1.50
2023-01-12T19:09:10.934Z,1.48
2023-01-12T19:11:41.476Z,1.30
2023-01-12T19:14:29.995Z,2.28
2023-01-12T19:17:16.982Z,1.85
2023-01-12T19:19:46.606Z,1.00
2023-01-12T19:22:33.592Z,1.77
2023-01-12T19:25:20.515Z,1.80
2023-01-12T19:28:07.465Z,1.90
2023-01-12T19:30:38.485Z,2.08
2023-01-12T19:33:08.460Z,1.50
2023-01-12T19:35:40.079Z,1.08
2023-01-12T19:38:11.999Z,1.58
2023-01-12T19:40:46.502Z,1.15
2023-01-12T19:43:21.009Z,0.98
2023-01-12T19:45:54.848Z,1.42
2023-01-12T19:48:26.722Z,1.60
2023-01-12T19:50:56.397Z,1.23
2023-01-12T19:53:27.051Z,1.25
2023-01-12T19:55:56.457Z,1.00
2023-01-12T19:58:27.261Z,1.58
2023-01-12T20:00:58.110Z,1.00
2023-01-12T20:03:27.519Z,1.50
2023-01-12T20:05:56.872Z,1.40
2023-01-12T20:08:27.017Z,1.30
2023-01-12T20:10:59.367Z,1.40
2023-01-12T20:13:29.266Z,1.90
2023-01-12T20:16:00.131Z,1.42
2023-01-12T20:18:29.602Z,1.85
2023-01-12T20:21:00.943Z,2.45
2023-01-12T20:23:30.492Z,1.85
2023-01-12T20:25:59.888Z,1.60
2023-01-12T20:28:29.297Z,1.63
2023-01-12T20:31:00.147Z,1.88
2023-01-12T20:33:29.579Z,1.20
2023-01-12T20:36:00.908Z,1.50
2023-01-12T20:38:30.655Z,1.40
2023-01-12T20:41:00.634Z,2.10
2023-01-12T20:43:30.041Z,1.98
2023-01-12T20:46:01.291Z,2.10
2023-01-12T20:48:30.664Z,1.70
2023-01-12T20:51:01.116Z,1.90
2023-01-12T20:53:31.620Z,1.88
2023-01-12T20:56:01.309Z,1.38
2023-01-12T20:58:30.716Z,1.70
2023-01-12T21:01:01.548Z,1.58
2023-01-12T21:03:31.067Z,1.60
2023-01-12T21:06:01.027Z,1.50
2023-01-12T21:08:30.413Z,1.77
2023-01-12T21:11:00.532Z,1.63
2023-01-12T21:13:29.986Z,1.40
2023-01-12T21:16:02.893Z,1.38
2023-01-12T21:18:32.930Z,2.03
2023-01-12T21:21:02.638Z,1.85
2023-01-12T21:23:32.321Z,1.13
2023-01-12T21:26:01.923Z,1.45
2023-01-12T21:28:31.271Z,1.20
2023-01-12T21:31:04.185Z,1.20
2023-01-12T21:33:34.385Z,1.02
2023-01-12T21:36:04.492Z,1.15
2023-01-12T21:38:34.170Z,0.88
2023-01-12T21:41:05.888Z,0.88
2023-01-12T21:43:35.792Z,0.68
2023-01-12T21:46:10.553Z,1.42
2023-01-12T21:48:40.008Z,1.00
2023-01-12T21:51:14.656Z,1.20
2023-01-12T21:53:45.168Z,0.93
2023-01-12T21:56:15.097Z,1.05
2023-01-12T21:58:45.735Z,1.67
2023-01-12T22:01:16.844Z,0.80
2023-01-12T22:03:46.388Z,0.80
2023-01-12T22:06:15.874Z,0.57
2023-01-12T22:08:45.465Z,0.93
2023-01-12T22:11:18.269Z,0.70
2023-01-12T22:13:48.544Z,1.00
2023-01-12T22:16:19.724Z,0.60
2023-01-12T22:18:52.372Z,0.50
2023-01-12T22:21:22.789Z,0.60
2023-01-12T22:23:52.272Z,1.05
2023-01-12T22:26:22.118Z,1.33
2023-01-12T22:28:51.515Z,1.83
2023-01-12T22:31:25.080Z,0.70
2023-01-12T22:34:02.715Z,0.80
2023-01-12T22:36:35.334Z,0.77
2023-01-12T22:39:05.657Z,0.60
2023-01-12T22:41:35.215Z,0.45
2023-01-12T22:44:05.178Z,0.60
2023-01-12T22:46:36.929Z,0.50
2023-01-12T22:49:07.269Z,1.08
2023-01-12T22:51:39.009Z,0.73
2023-01-12T22:54:08.435Z,0.45
2023-01-12T22:56:38.452Z,0.63
2023-01-12T22:59:09.750Z,0.70
2023-01-12T23:01:40.773Z,0.50
2023-01-12T23:04:12.690Z,0.50
2023-01-12T23:06:42.601Z,0.50
2023-01-12T23:09:12.601Z,0.63
2023-01-12T23:11:42.063Z,0.60
2023-01-12T23:14:11.520Z,0.68
2023-01-12T23:16:42.247Z,0.57
2023-01-12T23:19:12.237Z,0.52
2023-01-12T23:21:43.573Z,0.60
2023-01-12T23:24:12.936Z,0.70
2023-01-12T23:26:42.265Z,0.45
2023-01-12T23:29:11.754Z,0.80
2023-01-12T23:31:43.337Z,0.40
2023-01-12T23:34:13.435Z,1.08
2023-01-12T23:36:43.100Z,0.43
2023-01-12T23:39:12.940Z,0.65
2023-01-12T23:41:42.412Z,0.65
2023-01-12T23:44:11.994Z,0.68
2023-01-12T23:46:43.078Z,0.57
2023-01-12T23:49:12.685Z,0.80
2023-01-12T23:51:42.111Z,0.80
2023-01-12T23:54:17.617Z,0.70
2023-01-12T23:56:47.028Z,0.43
2023-01-12T23:59:16.420Z,0.50
